sensor_id;sensor_type;location;lat;lon;timestamp;P1;durP1;ratioP1;P2;durP2;ratioP2
72053;SDS011;59918;51.280;7.950;2023-11-18T00:01:50;30.73;;;11.85;;
72053;SDS011;59918;51.280;7.950;2023-11-18T00:04:15;29.17;;;11.52;;
72053;SDS011;59918;51.280;7.950;2023-11-18T00:06:40;33.08;;;11.43;;
72053;SDS011;59918;51.280;7.950;2023-11-18T00:09:06;28.25;;;12.55;;
72053;SDS011;59918;51.280;7.950;2023-11-18T00:11:31;27.08;;;12.13;;
72053;SDS011;59918;51.280;7.950;2023-11-18T00:13:57;24.20;;;10.93;;
72053;SDS011;59918;51.280;7.950;2023-11-18T00:16:22;21.92;;;9.88;;
72053;SDS011;59918;51.280;7.950;2023-11-18T00:18:47;26.88;;;11.50;;
72053;SDS011;59918;51.280;7.950;2023-11-18T00:21:12;28.05;;;10.70;;
72053;SDS011;59918;51.280;7.950;2023-11-18T00:23:38;28.98;;;10.98;;
72053;SDS011;59918;51.280;7.950;2023-11-18T00:26:03;30.08;;;10.75;;
72053;SDS011;59918;51.280;7.950;2023-11-18T00:28:29;26.85;;;10.52;;
72053;SDS011;59918;51.280;7.950;2023-11-18T00:30:54;26.17;;;11.55;;
72053;SDS011;59918;51.280;7.950;2023-11-18T00:33:19;23.08;;;9.48;;
72053;SDS011;59918;51.280;7.950;2023-11-18T00:35:44;27.15;;;11.52;;
72053;SDS011;59918;51.280;7.950;2023-11-18T00:38:10;26.30;;;10.32;;
72053;SDS011;59918;51.280;7.950;2023-11-18T00:40:35;27.98;;;10.20;;
72053;SDS011;59918;51.280;7.950;2023-11-18T00:43:00;28.83;;;11.13;;
72053;SDS011;59918;51.280;7.950;2023-11-18T00:45:25;28.80;;;11.45;;
72053;SDS011;59918;51.280;7.950;2023-11-18T00:47:51;29.05;;;11.98;;
72053;SDS011;59918;51.280;7.950;2023-11-18T00:50:16;29.92;;;12.25;;
72053;SDS011;59918;51.280;7.950;2023-11-18T00:52:41;27.48;;;10.95;;
72053;SDS011;59918;51.280;7.950;2023-11-18T00:55:07;27.88;;;11.98;;
72053;SDS011;59918;51.280;7.950;2023-11-18T00:57:33;33.58;;;12.15;;
72053;SDS011;59918;51.280;7.950;2023-11-18T00:59:59;28.70;;;11.45;;
72053;SDS011;59918;51.280;7.950;2023-11-18T01:02:36;34.28;;;12.15;;
72053;SDS011;59918;51.280;7.950;2023-11-18T01:05:01;28.50;;;11.02;;
72053;SDS011;59918;51.280;7.950;2023-11-18T01:07:26;33.58;;;10.82;;
72053;SDS011;59918;51.280;7.950;2023-11-18T01:09:52;29.85;;;11.23;;
72053;SDS011;59918;51.280;7.950;2023-11-18T01:12:17;21.73;;;10.07;;
72053;SDS011;59918;51.280;7.950;2023-11-18T01:14:42;23.02;;;10.35;;
72053;SDS011;59918;51.280;7.950;2023-11-18T01:17:08;21.00;;;10.07;;
72053;SDS011;59918;51.280;7.950;2023-11-18T01:19:33;19.90;;;9.30;;
72053;SDS011;59918;51.280;7.950;2023-11-18T01:21:59;28.95;;;10.93;;
72053;SDS011;59918;51.280;7.950;2023-11-18T01:24:24;34.10;;;11.85;;
72053;SDS011;59918;51.280;7.950;2023-11-18T01:26:50;33.42;;;12.27;;
72053;SDS011;59918;51.280;7.950;2023-11-18T01:29:15;38.63;;;13.30;;
72053;SDS011;59918;51.280;7.950;2023-11-18T01:31:40;30.80;;;12.05;;
72053;SDS011;59918;51.280;7.950;2023-11-18T01:34:06;30.00;;;11.25;;
72053;SDS011;59918;51.280;7.950;2023-11-18T01:36:32;28.30;;;11.38;;
72053;SDS011;59918;51.280;7.950;2023-11-18T01:38:59;29.05;;;10.95;;
72053;SDS011;59918;51.280;7.950;2023-11-18T01:41:24;36.00;;;12.45;;
72053;SDS011;59918;51.280;7.950;2023-11-18T01:43:50;26.30;;;11.00;;
72053;SDS011;59918;51.280;7.950;2023-11-18T01:46:15;29.55;;;10.95;;
72053;SDS011;59918;51.280;7.950;2023-11-18T01:48:41;32.17;;;11.60;;
72053;SDS011;59918;51.280;7.950;2023-11-18T01:51:07;31.83;;;11.27;;
72053;SDS011;59918;51.280;7.950;2023-11-18T01:53:34;35.10;;;11.98;;
72053;SDS011;59918;51.280;7.950;2023-11-18T01:56:02;32.08;;;12.77;;
72053;SDS011;59918;51.280;7.950;2023-11-18T01:58:28;33.78;;;12.38;;
72053;SDS011;59918;51.280;7.950;2023-11-18T02:00:53;29.23;;;11.90;;
72053;SDS011;59918;51.280;7.950;2023-11-18T02:03:18;25.70;;;11.27;;
72053;SDS011;59918;51.280;7.950;2023-11-18T02:05:44;31.65;;;11.65;;
72053;SDS011;59918;51.280;7.950;2023-11-18T02:08:09;32.20;;;11.50;;
72053;SDS011;59918;51.280;7.950;2023-11-18T02:10:42;24.73;;;11.63;;
72053;SDS011;59918;51.280;7.950;2023-11-18T02:13:29;24.27;;;10.70;;
72053;SDS011;59918;51.280;7.950;2023-11-18T02:15:57;32.33;;;11.73;;
72053;SDS011;59918;51.280;7.950;2023-11-18T02:18:28;24.05;;;11.07;;
72053;SDS011;59918;51.280;7.950;2023-11-18T02:20:54;29.63;;;10.43;;
72053;SDS011;59918;51.280;7.950;2023-11-18T02:23:20;29.75;;;10.70;;
72053;SDS011;59918;51.280;7.950;2023-11-18T02:25:45;26.67;;;11.15;;
72053;SDS011;59918;51.280;7.950;2023-11-18T02:28:11;26.45;;;10.40;;
72053;SDS011;59918;51.280;7.950;2023-11-18T02:30:36;32.85;;;12.05;;
72053;SDS011;59918;51.280;7.950;2023-11-18T02:33:04;27.42;;;11.55;;
72053;SDS011;59918;51.280;7.950;2023-11-18T02:35:48;28.55;;;11.35;;
72053;SDS011;59918;51.280;7.950;2023-11-18T02:38:16;30.88;;;12.27;;
72053;SDS011;59918;51.280;7.950;2023-11-18T02:40:44;26.30;;;11.30;;
72053;SDS011;59918;51.280;7.950;2023-11-18T02:43:11;30.10;;;11.98;;
72053;SDS011;59918;51.280;7.950;2023-11-18T02:45:36;35.25;;;13.63;;
72053;SDS011;59918;51.280;7.950;2023-11-18T02:48:05;40.15;;;12.95;;
72053;SDS011;59918;51.280;7.950;2023-11-18T02:50:31;31.58;;;12.77;;
72053;SDS011;59918;51.280;7.950;2023-11-18T02:52:56;33.08;;;13.32;;
72053;SDS011;59918;51.280;7.950;2023-11-18T02:55:21;34.08;;;13.95;;
72053;SDS011;59918;51.280;7.950;2023-11-18T02:57:46;32.70;;;13.10;;
72053;SDS011;59918;51.280;7.950;2023-11-18T03:00:12;34.83;;;13.95;;
72053;SDS011;59918;51.280;7.950;2023-11-18T03:02:38;28.52;;;12.55;;
72053;SDS011;59918;51.280;7.950;2023-11-18T03:05:03;32.20;;;13.60;;
72053;SDS011;59918;51.280;7.950;2023-11-18T03:07:29;31.17;;;13.57;;
72053;SDS011;59918;51.280;7.950;2023-11-18T03:09:54;37.42;;;13.45;;
72053;SDS011;59918;51.280;7.950;2023-11-18T03:12:19;27.35;;;12.68;;
72053;SDS011;59918;51.280;7.950;2023-11-18T03:14:44;32.88;;;13.70;;
72053;SDS011;59918;51.280;7.950;2023-11-18T03:17:10;30.48;;;13.18;;
72053;SDS011;59918;51.280;7.950;2023-11-18T03:19:35;32.35;;;14.65;;
72053;SDS011;59918;51.280;7.950;2023-11-18T03:22:01;29.75;;;12.70;;
72053;SDS011;59918;51.280;7.950;2023-11-18T03:24:27;29.15;;;13.48;;
72053;SDS011;59918;51.280;7.950;2023-11-18T03:26:52;19.83;;;10.93;;
72053;SDS011;59918;51.280;7.950;2023-11-18T03:29:17;23.58;;;11.57;;
72053;SDS011;59918;51.280;7.950;2023-11-18T03:31:43;28.00;;;12.82;;
72053;SDS011;59918;51.280;7.950;2023-11-18T03:34:08;20.75;;;10.70;;
72053;SDS011;59918;51.280;7.950;2023-11-18T03:36:33;22.60;;;10.95;;
72053;SDS011;59918;51.280;7.950;2023-11-18T03:38:58;24.75;;;11.40;;
72053;SDS011;59918;51.280;7.950;2023-11-18T03:41:23;23.27;;;11.23;;
72053;SDS011;59918;51.280;7.950;2023-11-18T03:43:49;20.88;;;10.43;;
72053;SDS011;59918;51.280;7.950;2023-11-18T03:46:14;25.48;;;11.65;;
72053;SDS011;59918;51.280;7.950;2023-11-18T03:48:39;28.02;;;11.10;;
72053;SDS011;59918;51.280;7.950;2023-11-18T03:51:08;25.90;;;12.35;;
72053;SDS011;59918;51.280;7.950;2023-11-18T03:53:34;24.77;;;10.90;;
72053;SDS011;59918;51.280;7.950;2023-11-18T03:56:02;23.48;;;11.82;;
72053;SDS011;59918;51.280;7.950;2023-11-18T03:58:28;24.83;;;12.07;;
72053;SDS011;59918;51.280;7.950;2023-11-18T04:00:56;25.08;;;10.77;;
72053;SDS011;59918;51.280;7.950;2023-11-18T04:03:21;23.85;;;10.70;;
72053;SDS011;59918;51.280;7.950;2023-11-18T04:05:46;28.45;;;12.65;;
72053;SDS011;59918;51.280;7.950;2023-11-18T04:08:11;25.90;;;12.43;;
72053;SDS011;59918;51.280;7.950;2023-11-18T04:10:36;24.17;;;11.52;;
72053;SDS011;59918;51.280;7.950;2023-11-18T04:13:02;21.08;;;11.73;;
72053;SDS011;59918;51.280;7.950;2023-11-18T04:15:27;24.92;;;12.07;;
72053;SDS011;59918;51.280;7.950;2023-11-18T04:17:52;26.33;;;11.68;;
72053;SDS011;59918;51.280;7.950;2023-11-18T04:20:18;28.20;;;13.38;;
72053;SDS011;59918;51.280;7.950;2023-11-18T04:22:43;24.25;;;12.43;;
72053;SDS011;59918;51.280;7.950;2023-11-18T04:25:12;21.35;;;11.55;;
72053;SDS011;59918;51.280;7.950;2023-11-18T04:27:38;24.65;;;11.68;;
72053;SDS011;59918;51.280;7.950;2023-11-18T04:30:04;24.02;;;11.45;;
72053;SDS011;59918;51.280;7.950;2023-11-18T04:32:29;26.25;;;13.43;;
72053;SDS011;59918;51.280;7.950;2023-11-18T04:34:55;22.08;;;11.10;;
72053;SDS011;59918;51.280;7.950;2023-11-18T04:37:20;27.52;;;11.68;;
72053;SDS011;59918;51.280;7.950;2023-11-18T04:39:48;27.73;;;11.77;;
72053;SDS011;59918;51.280;7.950;2023-11-18T04:42:13;29.70;;;14.75;;
72053;SDS011;59918;51.280;7.950;2023-11-18T04:44:39;26.45;;;13.77;;
72053;SDS011;59918;51.280;7.950;2023-11-18T04:47:04;33.15;;;15.20;;
72053;SDS011;59918;51.280;7.950;2023-11-18T04:49:29;29.92;;;13.57;;
72053;SDS011;59918;51.280;7.950;2023-11-18T04:51:55;25.90;;;13.60;;
72053;SDS011;59918;51.280;7.950;2023-11-18T04:54:20;33.75;;;15.15;;
72053;SDS011;59918;51.280;7.950;2023-11-18T04:56:45;27.63;;;13.10;;
72053;SDS011;59918;51.280;7.950;2023-11-18T04:59:10;33.05;;;14.32;;
72053;SDS011;59918;51.280;7.950;2023-11-18T05:01:35;32.90;;;15.13;;
72053;SDS011;59918;51.280;7.950;2023-11-18T05:04:01;28.55;;;14.75;;
72053;SDS011;59918;51.280;7.950;2023-11-18T05:06:26;26.15;;;12.45;;
72053;SDS011;59918;51.280;7.950;2023-11-18T05:08:51;25.40;;;11.50;;
72053;SDS011;59918;51.280;7.950;2023-11-18T05:11:17;25.92;;;12.02;;
72053;SDS011;59918;51.280;7.950;2023-11-18T05:13:42;24.67;;;11.55;;
72053;SDS011;59918;51.280;7.950;2023-11-18T05:16:08;21.77;;;10.82;;
72053;SDS011;59918;51.280;7.950;2023-11-18T05:18:33;25.95;;;11.95;;
72053;SDS011;59918;51.280;7.950;2023-11-18T05:20:58;26.10;;;11.77;;
72053;SDS011;59918;51.280;7.950;2023-11-18T05:23:24;23.10;;;12.43;;
72053;SDS011;59918;51.280;7.950;2023-11-18T05:25:49;27.33;;;12.98;;
72053;SDS011;59918;51.280;7.950;2023-11-18T05:28:15;24.95;;;12.57;;
72053;SDS011;59918;51.280;7.950;2023-11-18T05:30:41;27.77;;;13.13;;
72053;SDS011;59918;51.280;7.950;2023-11-18T05:33:06;23.08;;;11.60;;
72053;SDS011;59918;51.280;7.950;2023-11-18T05:35:32;22.90;;;11.63;;
72053;SDS011;59918;51.280;7.950;2023-11-18T05:37:59;24.80;;;12.95;;
72053;SDS011;59918;51.280;7.950;2023-11-18T05:40:28;25.75;;;13.43;;
72053;SDS011;59918;51.280;7.950;2023-11-18T05:42:53;25.80;;;12.60;;
72053;SDS011;59918;51.280;7.950;2023-11-18T05:45:21;26.50;;;12.45;;
72053;SDS011;59918;51.280;7.950;2023-11-18T05:47:46;20.90;;;10.50;;
72053;SDS011;59918;51.280;7.950;2023-11-18T05:50:12;20.42;;;11.82;;
72053;SDS011;59918;51.280;7.950;2023-11-18T05:52:37;24.50;;;11.90;;
72053;SDS011;59918;51.280;7.950;2023-11-18T05:55:02;21.55;;;11.23;;
72053;SDS011;59918;51.280;7.950;2023-11-18T05:57:28;25.05;;;11.50;;
72053;SDS011;59918;51.280;7.950;2023-11-18T05:59:53;19.58;;;10.57;;
72053;SDS011;59918;51.280;7.950;2023-11-18T06:02:18;16.60;;;10.40;;
72053;SDS011;59918;51.280;7.950;2023-11-18T06:04:44;22.27;;;10.55;;
72053;SDS011;59918;51.280;7.950;2023-11-18T06:07:09;19.02;;;10.32;;
72053;SDS011;59918;51.280;7.950;2023-11-18T06:09:35;18.23;;;10.13;;
72053;SDS011;59918;51.280;7.950;2023-11-18T06:12:00;23.65;;;10.98;;
72053;SDS011;59918;51.280;7.950;2023-11-18T06:14:25;20.15;;;10.65;;
72053;SDS011;59918;51.280;7.950;2023-11-18T06:16:51;22.15;;;11.65;;
72053;SDS011;59918;51.280;7.950;2023-11-18T06:19:16;26.15;;;11.85;;
72053;SDS011;59918;51.280;7.950;2023-11-18T06:21:41;23.95;;;12.80;;
72053;SDS011;59918;51.280;7.950;2023-11-18T06:24:07;19.77;;;10.95;;
72053;SDS011;59918;51.280;7.950;2023-11-18T06:26:32;21.30;;;11.23;;
72053;SDS011;59918;51.280;7.950;2023-11-18T06:28:58;23.65;;;11.23;;
72053;SDS011;59918;51.280;7.950;2023-11-18T06:31:23;23.75;;;11.48;;
72053;SDS011;59918;51.280;7.950;2023-11-18T06:33:49;19.70;;;10.98;;
72053;SDS011;59918;51.280;7.950;2023-11-18T06:38:40;19.90;;;10.98;;
72053;SDS011;59918;51.280;7.950;2023-11-18T06:41:06;20.67;;;11.27;;
72053;SDS011;59918;51.280;7.950;2023-11-18T06:43:34;16.98;;;10.00;;
72053;SDS011;59918;51.280;7.950;2023-11-18T06:46:00;18.55;;;10.13;;
72053;SDS011;59918;51.280;7.950;2023-11-18T06:48:27;18.08;;;9.93;;
72053;SDS011;59918;51.280;7.950;2023-11-18T06:50:53;20.73;;;10.40;;
72053;SDS011;59918;51.280;7.950;2023-11-18T06:53:18;24.98;;;11.20;;
72053;SDS011;59918;51.280;7.950;2023-11-18T06:55:43;22.83;;;11.85;;
72053;SDS011;59918;51.280;7.950;2023-11-18T06:58:08;21.15;;;10.65;;
72053;SDS011;59918;51.280;7.950;2023-11-18T07:00:34;20.27;;;10.88;;
72053;SDS011;59918;51.280;7.950;2023-11-18T07:02:59;19.35;;;9.55;;
72053;SDS011;59918;51.280;7.950;2023-11-18T07:05:24;21.40;;;10.75;;
72053;SDS011;59918;51.280;7.950;2023-11-18T07:07:50;18.15;;;10.50;;
72053;SDS011;59918;51.280;7.950;2023-11-18T07:10:16;20.42;;;9.82;;
72053;SDS011;59918;51.280;7.950;2023-11-18T07:12:41;20.83;;;10.85;;
72053;SDS011;59918;51.280;7.950;2023-11-18T07:15:07;21.73;;;10.88;;
72053;SDS011;59918;51.280;7.950;2023-11-18T07:17:32;19.73;;;11.07;;
72053;SDS011;59918;51.280;7.950;2023-11-18T07:19:57;22.98;;;11.93;;
72053;SDS011;59918;51.280;7.950;2023-11-18T07:22:23;19.40;;;10.70;;
72053;SDS011;59918;51.280;7.950;2023-11-18T07:24:48;18.70;;;10.63;;
72053;SDS011;59918;51.280;7.950;2023-11-18T07:27:13;16.55;;;10.35;;
72053;SDS011;59918;51.280;7.950;2023-11-18T07:29:41;18.98;;;10.52;;
72053;SDS011;59918;51.280;7.950;2023-11-18T07:32:08;18.50;;;9.90;;
72053;SDS011;59918;51.280;7.950;2023-11-18T07:34:34;20.05;;;11.55;;
72053;SDS011;59918;51.280;7.950;2023-11-18T07:36:59;21.52;;;11.48;;
72053;SDS011;59918;51.280;7.950;2023-11-18T07:39:24;20.27;;;11.85;;
72053;SDS011;59918;51.280;7.950;2023-11-18T07:41:49;18.60;;;12.02;;
72053;SDS011;59918;51.280;7.950;2023-11-18T07:44:15;23.10;;;11.63;;
72053;SDS011;59918;51.280;7.950;2023-11-18T07:46:40;22.77;;;12.32;;
72053;SDS011;59918;51.280;7.950;2023-11-18T07:49:05;24.45;;;11.68;;
72053;SDS011;59918;51.280;7.950;2023-11-18T07:51:31;22.02;;;11.25;;
72053;SDS011;59918;51.280;7.950;2023-11-18T07:53:56;22.80;;;12.70;;
72053;SDS011;59918;51.280;7.950;2023-11-18T07:56:21;21.27;;;11.32;;
72053;SDS011;59918;51.280;7.950;2023-11-18T07:58:46;21.10;;;11.95;;
72053;SDS011;59918;51.280;7.950;2023-11-18T08:01:12;20.55;;;11.32;;
72053;SDS011;59918;51.280;7.950;2023-11-18T08:03:37;23.77;;;12.70;;
72053;SDS011;59918;51.280;7.950;2023-11-18T08:06:03;20.92;;;11.63;;
72053;SDS011;59918;51.280;7.950;2023-11-18T08:08:29;22.33;;;10.80;;
72053;SDS011;59918;51.280;7.950;2023-11-18T08:10:54;25.25;;;12.88;;
72053;SDS011;59918;51.280;7.950;2023-11-18T08:13:20;22.75;;;11.50;;
72053;SDS011;59918;51.280;7.950;2023-11-18T08:15:45;16.55;;;9.95;;
72053;SDS011;59918;51.280;7.950;2023-11-18T08:18:10;19.70;;;10.75;;
72053;SDS011;59918;51.280;7.950;2023-11-18T08:20:36;20.52;;;10.68;;
72053;SDS011;59918;51.280;7.950;2023-11-18T08:23:04;17.90;;;10.60;;
72053;SDS011;59918;51.280;7.950;2023-11-18T08:25:30;18.88;;;10.57;;
72053;SDS011;59918;51.280;7.950;2023-11-18T08:27:56;14.10;;;9.65;;
72053;SDS011;59918;51.280;7.950;2023-11-18T08:30:21;13.88;;;9.35;;
72053;SDS011;59918;51.280;7.950;2023-11-18T08:32:46;16.92;;;9.20;;
72053;SDS011;59918;51.280;7.950;2023-11-18T08:35:12;12.43;;;8.27;;
72053;SDS011;59918;51.280;7.950;2023-11-18T08:37:37;13.55;;;9.02;;
72053;SDS011;59918;51.280;7.950;2023-11-18T08:40:03;18.10;;;10.43;;
72053;SDS011;59918;51.280;7.950;2023-11-18T08:42:29;19.60;;;10.52;;
72053;SDS011;59918;51.280;7.950;2023-11-18T08:44:55;13.82;;;9.05;;
72053;SDS011;59918;51.280;7.950;2023-11-18T08:47:20;16.27;;;9.65;;
72053;SDS011;59918;51.280;7.950;2023-11-18T08:49:46;16.65;;;10.35;;
72053;SDS011;59918;51.280;7.950;2023-11-18T08:52:11;17.10;;;10.07;;
72053;SDS011;59918;51.280;7.950;2023-11-18T08:54:37;16.48;;;11.15;;
72053;SDS011;59918;51.280;7.950;2023-11-18T08:57:03;14.77;;;9.68;;
72053;SDS011;59918;51.280;7.950;2023-11-18T08:59:30;15.00;;;9.50;;
72053;SDS011;59918;51.280;7.950;2023-11-18T09:01:55;17.77;;;9.32;;
72053;SDS011;59918;51.280;7.950;2023-11-18T09:04:20;14.20;;;8.65;;
72053;SDS011;59918;51.280;7.950;2023-11-18T09:06:49;13.73;;;8.65;;
72053;SDS011;59918;51.280;7.950;2023-11-18T09:09:15;12.15;;;8.55;;
72053;SDS011;59918;51.280;7.950;2023-11-18T09:11:42;13.90;;;8.68;;
72053;SDS011;59918;51.280;7.950;2023-11-18T09:14:08;16.10;;;8.65;;
72053;SDS011;59918;51.280;7.950;2023-11-18T09:16:33;13.55;;;8.52;;
72053;SDS011;59918;51.280;7.950;2023-11-18T09:18:58;17.23;;;8.80;;
72053;SDS011;59918;51.280;7.950;2023-11-18T09:21:23;14.25;;;8.60;;
72053;SDS011;59918;51.280;7.950;2023-11-18T09:23:49;13.27;;;8.18;;
72053;SDS011;59918;51.280;7.950;2023-11-18T09:26:14;11.80;;;7.88;;
72053;SDS011;59918;51.280;7.950;2023-11-18T09:28:39;14.65;;;8.60;;
72053;SDS011;59918;51.280;7.950;2023-11-18T09:31:05;12.70;;;8.57;;
72053;SDS011;59918;51.280;7.950;2023-11-18T09:33:32;11.88;;;8.35;;
72053;SDS011;59918;51.280;7.950;2023-11-18T09:36:02;14.07;;;8.45;;
72053;SDS011;59918;51.280;7.950;2023-11-18T09:38:29;12.88;;;8.70;;
72053;SDS011;59918;51.280;7.950;2023-11-18T09:40:58;15.10;;;8.48;;
72053;SDS011;59918;51.280;7.950;2023-11-18T09:43:25;13.18;;;8.80;;
72053;SDS011;59918;51.280;7.950;2023-11-18T09:45:52;14.50;;;8.95;;
72053;SDS011;59918;51.280;7.950;2023-11-18T09:48:19;13.18;;;8.30;;
72053;SDS011;59918;51.280;7.950;2023-11-18T09:50:45;15.15;;;8.80;;
72053;SDS011;59918;51.280;7.950;2023-11-18T09:53:15;11.65;;;7.95;;
72053;SDS011;59918;51.280;7.950;2023-11-18T09:55:49;10.93;;;7.10;;
72053;SDS011;59918;51.280;7.950;2023-11-18T09:58:17;15.38;;;9.65;;
72053;SDS011;59918;51.280;7.950;2023-11-18T10:00:43;14.80;;;8.98;;
72053;SDS011;59918;51.280;7.950;2023-11-18T10:03:12;12.25;;;8.68;;
72053;SDS011;59918;51.280;7.950;2023-11-18T10:05:39;12.40;;;8.13;;
72053;SDS011;59918;51.280;7.950;2023-11-18T10:08:05;12.20;;;8.38;;
72053;SDS011;59918;51.280;7.950;2023-11-18T10:10:30;14.02;;;8.55;;
72053;SDS011;59918;51.280;7.950;2023-11-18T10:12:56;18.30;;;10.88;;
72053;SDS011;59918;51.280;7.950;2023-11-18T10:15:22;18.42;;;9.90;;
72053;SDS011;59918;51.280;7.950;2023-11-18T10:17:47;15.38;;;10.00;;
72053;SDS011;59918;51.280;7.950;2023-11-18T10:20:12;15.25;;;9.57;;
72053;SDS011;59918;51.280;7.950;2023-11-18T10:22:37;16.90;;;10.70;;
72053;SDS011;59918;51.280;7.950;2023-11-18T10:25:03;17.05;;;9.07;;
72053;SDS011;59918;51.280;7.950;2023-11-18T10:27:29;13.63;;;9.02;;
72053;SDS011;59918;51.280;7.950;2023-11-18T10:29:55;16.55;;;9.63;;
72053;SDS011;59918;51.280;7.950;2023-11-18T10:32:29;13.93;;;9.18;;
72053;SDS011;59918;51.280;7.950;2023-11-18T10:34:58;16.15;;;9.77;;
72053;SDS011;59918;51.280;7.950;2023-11-18T10:37:24;16.48;;;9.02;;
72053;SDS011;59918;51.280;7.950;2023-11-18T10:39:50;16.77;;;9.70;;
72053;SDS011;59918;51.280;7.950;2023-11-18T10:42:16;17.42;;;10.18;;
72053;SDS011;59918;51.280;7.950;2023-11-18T10:44:53;14.27;;;9.60;;
72053;SDS011;59918;51.280;7.950;2023-11-18T10:47:19;16.50;;;10.88;;
72053;SDS011;59918;51.280;7.950;2023-11-18T10:49:45;17.00;;;9.85;;
72053;SDS011;59918;51.280;7.950;2023-11-18T10:52:10;15.93;;;9.68;;
72053;SDS011;59918;51.280;7.950;2023-11-18T10:54:35;16.58;;;10.20;;
72053;SDS011;59918;51.280;7.950;2023-11-18T10:57:01;18.73;;;10.40;;
72053;SDS011;59918;51.280;7.950;2023-11-18T10:59:26;16.65;;;10.80;;
72053;SDS011;59918;51.280;7.950;2023-11-18T11:01:52;15.57;;;10.25;;
72053;SDS011;59918;51.280;7.950;2023-11-18T11:04:17;15.05;;;9.73;;
72053;SDS011;59918;51.280;7.950;2023-11-18T11:06:43;16.20;;;9.70;;
72053;SDS011;59918;51.280;7.950;2023-11-18T11:09:09;16.58;;;9.07;;
72053;SDS011;59918;51.280;7.950;2023-11-18T11:11:43;20.25;;;9.80;;
72053;SDS011;59918;51.280;7.950;2023-11-18T11:14:12;12.40;;;8.57;;
72053;SDS011;59918;51.280;7.950;2023-11-18T11:16:44;13.43;;;8.88;;
72053;SDS011;59918;51.280;7.950;2023-11-18T11:21:56;11.93;;;8.85;;
72053;SDS011;59918;51.280;7.950;2023-11-18T11:24:36;14.32;;;9.70;;
72053;SDS011;59918;51.280;7.950;2023-11-18T11:27:17;13.38;;;8.75;;
72053;SDS011;59918;51.280;7.950;2023-11-18T11:30:20;12.85;;;8.45;;
72053;SDS011;59918;51.280;7.950;2023-11-18T11:35:57;15.05;;;8.88;;
72053;SDS011;59918;51.280;7.950;2023-11-18T11:38:27;17.05;;;8.40;;
72053;SDS011;59918;51.280;7.950;2023-11-18T11:40:55;12.68;;;7.75;;
72053;SDS011;59918;51.280;7.950;2023-11-18T11:43:25;14.35;;;8.80;;
72053;SDS011;59918;51.280;7.950;2023-11-18T11:45:51;14.15;;;8.00;;
72053;SDS011;59918;51.280;7.950;2023-11-18T11:48:17;12.30;;;7.82;;
72053;SDS011;59918;51.280;7.950;2023-11-18T11:50:45;13.23;;;8.57;;
72053;SDS011;59918;51.280;7.950;2023-11-18T11:53:22;14.05;;;8.35;;
72053;SDS011;59918;51.280;7.950;2023-11-18T11:55:50;11.95;;;7.53;;
72053;SDS011;59918;51.280;7.950;2023-11-18T12:00:55;8.93;;;6.80;;
72053;SDS011;59918;51.280;7.950;2023-11-18T12:03:23;10.73;;;7.68;;
72053;SDS011;59918;51.280;7.950;2023-11-18T12:05:49;11.68;;;7.00;;
72053;SDS011;59918;51.280;7.950;2023-11-18T12:08:16;10.98;;;7.60;;
72053;SDS011;59918;51.280;7.950;2023-11-18T12:10:49;13.32;;;7.63;;
72053;SDS011;59918;51.280;7.950;2023-11-18T12:13:19;11.52;;;6.30;;
72053;SDS011;59918;51.280;7.950;2023-11-18T12:15:54;10.23;;;7.15;;
72053;SDS011;59918;51.280;7.950;2023-11-18T12:18:21;9.65;;;6.70;;
72053;SDS011;59918;51.280;7.950;2023-11-18T12:20:46;9.15;;;7.00;;
72053;SDS011;59918;51.280;7.950;2023-11-18T12:23:11;11.02;;;7.43;;
72053;SDS011;59918;51.280;7.950;2023-11-18T12:25:36;10.25;;;7.03;;
72053;SDS011;59918;51.280;7.950;2023-11-18T12:28:06;8.20;;;7.00;;
72053;SDS011;59918;51.280;7.950;2023-11-18T12:35:26;12.32;;;7.22;;
72053;SDS011;59918;51.280;7.950;2023-11-18T12:40:55;12.55;;;7.63;;
72053;SDS011;59918;51.280;7.950;2023-11-18T12:49:16;15.82;;;8.25;;
72053;SDS011;59918;51.280;7.950;2023-11-18T12:51:42;14.50;;;8.80;;
72053;SDS011;59918;51.280;7.950;2023-11-18T12:54:09;14.18;;;8.60;;
72053;SDS011;59918;51.280;7.950;2023-11-18T12:56:36;18.90;;;9.75;;
72053;SDS011;59918;51.280;7.950;2023-11-18T12:59:02;18.08;;;9.13;;
72053;SDS011;59918;51.280;7.950;2023-11-18T13:01:27;11.57;;;8.98;;
72053;SDS011;59918;51.280;7.950;2023-11-18T13:03:52;13.63;;;8.30;;
72053;SDS011;59918;51.280;7.950;2023-11-18T13:06:18;11.23;;;8.25;;
72053;SDS011;59918;51.280;7.950;2023-11-18T13:08:43;13.90;;;8.60;;
72053;SDS011;59918;51.280;7.950;2023-11-18T13:11:09;17.40;;;8.18;;
72053;SDS011;59918;51.280;7.950;2023-11-18T13:13:34;10.80;;;7.47;;
72053;SDS011;59918;51.280;7.950;2023-11-18T13:16:00;12.20;;;8.25;;
72053;SDS011;59918;51.280;7.950;2023-11-18T13:18:25;16.10;;;8.02;;
72053;SDS011;59918;51.280;7.950;2023-11-18T13:20:54;26.23;;;14.10;;
72053;SDS011;59918;51.280;7.950;2023-11-18T13:25:49;10.73;;;6.47;;
72053;SDS011;59918;51.280;7.950;2023-11-18T13:28:15;12.02;;;7.30;;
72053;SDS011;59918;51.280;7.950;2023-11-18T13:30:40;13.27;;;7.38;;
72053;SDS011;59918;51.280;7.950;2023-11-18T13:33:06;12.93;;;8.38;;
72053;SDS011;59918;51.280;7.950;2023-11-18T13:35:31;16.40;;;7.97;;
72053;SDS011;59918;51.280;7.950;2023-11-18T13:37:57;15.75;;;7.68;;
72053;SDS011;59918;51.280;7.950;2023-11-18T13:40:22;13.45;;;7.40;;
72053;SDS011;59918;51.280;7.950;2023-11-18T13:42:48;15.40;;;8.52;;
72053;SDS011;59918;51.280;7.950;2023-11-18T13:45:13;13.63;;;7.63;;
72053;SDS011;59918;51.280;7.950;2023-11-18T13:47:39;13.48;;;7.53;;
72053;SDS011;59918;51.280;7.950;2023-11-18T13:50:07;11.43;;;8.05;;
72053;SDS011;59918;51.280;7.950;2023-11-18T13:52:33;15.98;;;8.57;;
72053;SDS011;59918;51.280;7.950;2023-11-18T13:54:58;15.15;;;7.47;;
72053;SDS011;59918;51.280;7.950;2023-11-18T13:57:24;14.55;;;8.00;;
72053;SDS011;59918;51.280;7.950;2023-11-18T13:59:50;14.82;;;8.13;;
72053;SDS011;59918;51.280;7.950;2023-11-18T14:02:15;12.77;;;7.38;;
72053;SDS011;59918;51.280;7.950;2023-11-18T14:04:41;14.23;;;6.25;;
72053;SDS011;59918;51.280;7.950;2023-11-18T14:07:08;10.52;;;6.25;;
72053;SDS011;59918;51.280;7.950;2023-11-18T14:09:34;11.32;;;6.75;;
72053;SDS011;59918;51.280;7.950;2023-11-18T14:11:59;11.20;;;6.60;;
72053;SDS011;59918;51.280;7.950;2023-11-18T14:14:24;9.75;;;6.22;;
72053;SDS011;59918;51.280;7.950;2023-11-18T14:16:53;9.52;;;5.95;;
72053;SDS011;59918;51.280;7.950;2023-11-18T14:19:19;9.55;;;6.15;;
72053;SDS011;59918;51.280;7.950;2023-11-18T14:21:47;9.45;;;6.45;;
72053;SDS011;59918;51.280;7.950;2023-11-18T14:24:13;10.55;;;5.97;;
72053;SDS011;59918;51.280;7.950;2023-11-18T14:26:38;9.15;;;5.72;;
72053;SDS011;59918;51.280;7.950;2023-11-18T14:29:03;10.63;;;6.20;;
72053;SDS011;59918;51.280;7.950;2023-11-18T14:31:29;9.07;;;5.82;;
72053;SDS011;59918;51.280;7.950;2023-11-18T14:33:54;8.30;;;4.72;;
72053;SDS011;59918;51.280;7.950;2023-11-18T14:36:19;8.55;;;5.38;;
72053;SDS011;59918;51.280;7.950;2023-11-18T14:38:44;8.90;;;5.28;;
72053;SDS011;59918;51.280;7.950;2023-11-18T14:41:10;8.30;;;5.68;;
72053;SDS011;59918;51.280;7.950;2023-11-18T14:43:36;6.40;;;4.85;;
72053;SDS011;59918;51.280;7.950;2023-11-18T14:46:01;7.28;;;4.97;;
72053;SDS011;59918;51.280;7.950;2023-11-18T14:48:26;6.95;;;4.78;;
72053;SDS011;59918;51.280;7.950;2023-11-18T14:50:51;5.10;;;4.18;;